createdAt,value
2022-11-01T00:02:02.240Z,11.01
2022-11-01T00:04:29.063Z,11.05
2022-11-01T00:06:55.870Z,11.03
2022-11-01T00:09:22.540Z,10.97
2022-11-01T00:11:49.306Z,10.92
2022-11-01T00:14:18.101Z,10.91
2022-11-01T00:16:44.968Z,10.88
2022-11-01T00:19:12.465Z,10.83
2022-11-01T00:21:39.138Z,10.81
2022-11-01T00:24:06.256Z,10.79
2022-11-01T00:26:32.999Z,10.76
2022-11-01T00:28:59.731Z,10.76
2022-11-01T00:31:26.503Z,10.74
2022-11-01T00:33:53.173Z,10.73
2022-11-01T00:36:19.804Z,10.71
2022-11-01T00:38:50.574Z,10.68
2022-11-01T00:41:19.434Z,10.67
2022-11-01T00:43:46.356Z,10.64
2022-11-01T00:46:12.992Z,10.64
2022-11-01T00:48:39.662Z,10.63
2022-11-01T00:51:06.311Z,10.61
2022-11-01T00:53:32.934Z,10.62
2022-11-01T00:56:01.549Z,10.58
2022-11-01T00:58:28.257Z,10.58
2022-11-01T01:00:55.173Z,10.59
2022-11-01T01:03:22.266Z,10.56
2022-11-01T01:05:50.004Z,10.56
2022-11-01T01:08:16.914Z,10.53
2022-11-01T01:10:45.062Z,10.51
2022-11-01T01:13:11.686Z,10.47
2022-11-01T01:15:39.613Z,10.42
2022-11-01T01:18:06.456Z,10.35
2022-11-01T01:20:33.842Z,10.27
2022-11-01T01:23:00.557Z,10.23
2022-11-01T01:25:27.548Z,10.16
2022-11-01T01:27:55.878Z,10.12
2022-11-01T01:30:22.653Z,10.06
2022-11-01T01:32:49.334Z,9.98
2022-11-01T01:35:16.158Z,9.95
2022-11-01T01:37:42.833Z,9.92
2022-11-01T01:40:09.982Z,9.88
2022-11-01T01:42:41.027Z,9.84
2022-11-01T01:45:15.520Z,9.82
2022-11-01T01:47:45.625Z,9.78
2022-11-01T01:50:13.887Z,9.77
2022-11-01T01:52:47.952Z,9.74
2022-11-01T01:55:19.030Z,9.71
2022-11-01T01:57:46.407Z,9.65
2022-11-01T02:00:13.553Z,9.62
2022-11-01T02:02:42.166Z,9.56
2022-11-01T02:05:20.493Z,9.51
2022-11-01T02:07:47.644Z,9.46
2022-11-01T02:10:15.751Z,9.43
2022-11-01T02:12:47.837Z,9.44
2022-11-01T02:15:16.385Z,9.45
2022-11-01T02:18:04.446Z,9.43
2022-11-01T02:21:09.269Z,9.38
2022-11-01T02:24:09.318Z,9.31
2022-11-01T02:27:14.205Z,9.26
2022-11-01T02:30:14.324Z,9.22
2022-11-01T02:33:04.021Z,9.19
2022-11-01T02:35:54.845Z,9.15
2022-11-01T02:38:28.305Z,9.14
2022-11-01T02:41:03.696Z,9.12
2022-11-01T02:43:39.865Z,9.11
2022-11-01T02:46:41.989Z,9.11
2022-11-01T02:49:13.064Z,9.08
2022-11-01T02:51:40.473Z,9.08
2022-11-01T02:54:08.493Z,9.03
2022-11-01T02:56:35.742Z,9.01
2022-11-01T02:59:02.579Z,8.99
2022-11-01T03:01:34.521Z,8.99
2022-11-01T03:04:02.291Z,8.98
2022-11-01T03:06:41.583Z,8.99
2022-11-01T03:09:12.202Z,8.97
2022-11-01T03:12:02.594Z,9.01
2022-11-01T03:14:48.665Z,9.05
2022-11-01T03:17:25.638Z,9.09
2022-11-01T03:19:58.162Z,9.13
2022-11-01T03:22:46.336Z,9.18
2022-11-01T03:25:44.522Z,9.22
2022-11-01T03:28:21.514Z,9.24
2022-11-01T03:30:56.768Z,9.28
2022-11-01T03:33:25.670Z,9.34
2022-11-01T03:35:56.317Z,9.34
2022-11-01T03:38:29.138Z,9.37
2022-11-01T03:41:00.605Z,9.40
2022-11-01T03:43:30.200Z,9.40
2022-11-01T03:45:57.133Z,9.45
2022-11-01T03:48:23.802Z,9.47
2022-11-01T03:50:52.441Z,9.51
2022-11-01T03:53:19.610Z,9.51
2022-11-01T03:55:46.203Z,9.53
2022-11-01T03:58:12.975Z,9.54
2022-11-01T04:00:42.642Z,9.54
2022-11-01T04:03:11.142Z,9.57
2022-11-01T04:05:40.545Z,9.58
2022-11-01T04:08:08.829Z,9.59
2022-11-01T04:10:35.814Z,9.60
2022-11-01T04:13:03.504Z,9.56
2022-11-01T04:15:48.846Z,9.57
2022-11-01T04:18:34.965Z,9.55
2022-11-01T04:21:06.007Z,9.49
2022-11-01T04:23:33.671Z,9.47
2022-11-01T04:26:00.523Z,9.43
2022-11-01T04:28:27.229Z,9.42
2022-11-01T04:30:54.446Z,9.41
2022-11-01T04:33:21.114Z,9.43
2022-11-01T04:35:47.932Z,9.43
2022-11-01T04:38:14.805Z,9.42
2022-11-01T04:40:42.673Z,9.40
2022-11-01T04:43:10.476Z,9.37
2022-11-01T04:45:37.093Z,9.33
2022-11-01T04:48:16.985Z,9.32
2022-11-01T04:50:45.528Z,9.32
2022-11-01T04:53:12.408Z,9.30
2022-11-01T04:55:39.249Z,9.28
2022-11-01T04:58:06.786Z,9.23
2022-11-01T05:00:34.028Z,9.24
2022-11-01T05:03:06.079Z,9.22
2022-11-01T05:05:33.191Z,9.21
2022-11-01T05:10:34.684Z,9.15
2022-11-01T05:13:02.520Z,9.14
2022-11-01T05:15:29.469Z,9.14
2022-11-01T05:17:56.618Z,9.16
2022-11-01T05:20:23.795Z,9.19
2022-11-01T05:22:50.450Z,9.22
2022-11-01T05:25:18.183Z,9.24
2022-11-01T05:27:44.821Z,9.25
2022-11-01T05:30:12.098Z,9.25
2022-11-01T05:32:38.697Z,9.24
2022-11-01T05:35:06.312Z,9.24
2022-11-01T05:37:33.178Z,9.22
2022-11-01T05:39:59.815Z,9.22
2022-11-01T05:42:26.522Z,9.19
2022-11-01T05:44:53.208Z,9.19
2022-11-01T05:47:19.849Z,9.16
2022-11-01T05:49:46.434Z,9.13
2022-11-01T05:52:13.062Z,9.11
2022-11-01T05:54:39.646Z,9.09
2022-11-01T05:57:06.304Z,9.05
2022-11-01T05:59:32.914Z,9.03
2022-11-01T06:01:59.806Z,9.02
2022-11-01T06:04:26.509Z,9.02
2022-11-01T06:06:53.145Z,9.02
2022-11-01T06:09:22.402Z,9.01
2022-11-01T06:11:49.087Z,9.02
2022-11-01T06:14:15.772Z,9.01
2022-11-01T06:16:44.467Z,9.01
2022-11-01T06:19:11.149Z,8.99
2022-11-01T06:21:37.839Z,8.97
2022-11-01T06:24:04.670Z,8.96
2022-11-01T06:26:32.287Z,8.95
2022-11-01T06:29:02.769Z,8.93
2022-11-01T06:31:29.667Z,8.93
2022-11-01T06:33:56.333Z,8.92
2022-11-01T06:36:23.363Z,8.91
2022-11-01T06:38:50.076Z,8.89
2022-11-01T06:41:16.987Z,8.87
2022-11-01T06:43:43.608Z,8.87
2022-11-01T06:46:10.280Z,8.86
2022-11-01T06:48:36.908Z,8.87
2022-11-01T06:51:04.886Z,8.86
2022-11-01T06:53:31.582Z,8.88
2022-11-01T06:55:59.973Z,8.88
2022-11-01T06:58:27.632Z,8.86
2022-11-01T07:00:54.344Z,8.86
2022-11-01T07:03:21.096Z,8.84
2022-11-01T07:05:49.586Z,8.82
2022-11-01T07:08:16.416Z,8.84
2022-11-01T07:10:43.908Z,8.85
2022-11-01T07:13:13.370Z,8.84
2022-11-01T07:15:40.455Z,8.84
2022-11-01T07:18:10.601Z,8.81
2022-11-01T07:20:44.144Z,8.81
2022-11-01T07:23:15.714Z,8.79
2022-11-01T07:25:43.279Z,8.78
2022-11-01T07:28:10.785Z,8.77
2022-11-01T07:30:37.629Z,8.77
2022-11-01T07:33:05.737Z,8.76
2022-11-01T07:35:32.822Z,8.75
2022-11-01T07:38:02.744Z,8.74
2022-11-01T07:40:31.915Z,8.75
2022-11-01T07:43:00.271Z,8.73
2022-11-01T07:45:28.989Z,8.74
2022-11-01T07:48:10.274Z,8.75
2022-11-01T07:50:38.229Z,8.77
2022-11-01T07:53:04.760Z,8.78
2022-11-01T07:55:31.904Z,8.81
2022-11-01T07:57:58.674Z,8.82
2022-11-01T08:00:25.534Z,8.84
2022-11-01T08:02:52.336Z,8.86
2022-11-01T08:05:19.033Z,8.90
2022-11-01T08:07:45.776Z,8.94
2022-11-01T08:10:13.456Z,8.98
2022-11-01T08:12:40.061Z,9.00
2022-11-01T08:15:07.238Z,9.01
2022-11-01T08:17:34.701Z,9.04
2022-11-01T08:20:04.280Z,9.07
2022-11-01T08:22:30.975Z,9.10
2022-11-01T08:24:57.563Z,9.16
2022-11-01T08:27:24.201Z,9.18
2022-11-01T08:29:50.832Z,9.22
2022-11-01T08:32:21.828Z,9.23
2022-11-01T08:34:49.077Z,9.29
2022-11-01T08:37:15.749Z,9.33
2022-11-01T08:39:42.398Z,9.37
2022-11-01T08:42:09.545Z,9.40
2022-11-01T08:44:36.232Z,9.45
2022-11-01T08:47:02.928Z,9.48
2022-11-01T08:49:29.583Z,9.52
2022-11-01T08:51:56.344Z,9.52
2022-11-01T08:54:23.189Z,9.54
2022-11-01T08:56:49.822Z,9.55
2022-11-01T08:59:16.620Z,9.56
2022-11-01T09:01:43.340Z,9.56
2022-11-01T09:04:10.221Z,9.58
2022-11-01T09:06:36.812Z,9.57
2022-11-01T09:09:04.481Z,9.58
2022-11-01T09:11:31.162Z,9.60
2022-11-01T09:13:58.061Z,9.61
2022-11-01T09:16:25.063Z,9.63
2022-11-01T09:18:51.868Z,9.66
2022-11-01T09:21:18.615Z,9.67
2022-11-01T09:23:46.454Z,9.67
2022-11-01T09:26:13.424Z,9.69
2022-11-01T09:28:40.613Z,9.69
2022-11-01T09:31:20.201Z,9.70
2022-11-01T09:33:47.908Z,9.71
2022-11-01T09:36:14.566Z,9.72
2022-11-01T09:38:41.171Z,9.73
2022-11-01T09:41:35.522Z,9.75
2022-11-01T09:44:04.737Z,9.80
2022-11-01T09:46:40.154Z,9.81
2022-11-01T09:49:07.384Z,9.85
2022-11-01T09:51:34.051Z,9.87
2022-11-01T09:54:04.441Z,9.90
2022-11-01T09:56:52.947Z,9.90
2022-11-01T09:59:19.854Z,9.93
2022-11-01T10:02:09.756Z,9.96
2022-11-01T10:05:04.091Z,9.99
2022-11-01T10:07:33.747Z,10.02
2022-11-01T10:10:19.247Z,10.02
2022-11-01T10:12:59.355Z,10.04
2022-11-01T10:15:34.701Z,10.05
2022-11-01T10:18:20.251Z,10.10
2022-11-01T10:20:47.664Z,10.12
2022-11-01T10:23:17.427Z,10.15
2022-11-01T10:25:51.354Z,10.19
2022-11-01T10:28:32.627Z,10.25
2022-11-01T10:31:06.684Z,10.31
2022-11-01T10:33:41.640Z,10.34
2022-11-01T10:36:18.570Z,10.38
2022-11-01T10:39:37.287Z,10.42
2022-11-01T10:41:51.177Z,10.43
2022-11-01T10:44:34.455Z,10.44
2022-11-01T10:47:05.033Z,10.46
2022-11-01T10:52:30.724Z,10.45
2022-11-01T10:54:59.642Z,10.44
2022-11-01T10:57:39.509Z,10.43
2022-11-01T11:00:15.295Z,10.45
2022-11-01T11:03:04.839Z,10.46
2022-11-01T11:05:33.251Z,10.47
2022-11-01T11:08:03.686Z,10.49
2022-11-01T11:10:30.735Z,10.50
2022-11-01T11:13:02.903Z,10.52
2022-11-01T11:15:43.184Z,10.55
2022-11-01T11:18:28.020Z,10.57
2022-11-01T11:21:02.050Z,10.58
2022-11-01T11:23:31.042Z,10.63
2022-11-01T11:26:09.819Z,10.66
2022-11-01T11:28:44.211Z,10.72
2022-11-01T11:31:26.016Z,10.77
2022-11-01T11:33:56.775Z,10.83
2022-11-01T11:36:40.927Z,10.90
2022-11-01T11:39:23.338Z,10.98
2022-11-01T11:41:50.038Z,11.06
2022-11-01T11:44:34.584Z,11.17
2022-11-01T11:47:03.156Z,11.29
2022-11-01T11:49:29.909Z,11.35
2022-11-01T11:51:56.602Z,11.42
2022-11-01T11:54:43.185Z,11.50
2022-11-01T11:57:24.995Z,11.56
2022-11-01T11:59:55.253Z,11.61
2022-11-01T12:02:28.567Z,11.69
2022-11-01T12:05:03.726Z,11.75
2022-11-01T12:07:57.951Z,11.87
2022-11-01T12:10:45.493Z,11.94
2022-11-01T12:13:33.664Z,12.03
2022-11-01T12:16:09.658Z,12.08
2022-11-01T12:19:03.831Z,12.14
2022-11-01T12:21:36.732Z,12.20
2022-11-01T12:24:26.987Z,12.27
2022-11-01T12:27:02.633Z,12.30
2022-11-01T12:29:44.983Z,12.33
2022-11-01T12:32:15.366Z,12.35
2022-11-01T12:34:44.276Z,12.35
2022-11-01T12:37:16.061Z,12.39
2022-11-01T12:40:23.489Z,12.44
2022-11-01T12:42:55.105Z,12.43
2022-11-01T12:45:24.731Z,12.37
2022-11-01T12:47:58.473Z,12.36
2022-11-01T12:50:33.172Z,12.39
2022-11-01T12:53:13.199Z,12.43
2022-11-01T12:55:42.094Z,12.47
2022-11-01T12:58:16.124Z,12.51
2022-11-01T13:01:01.301Z,12.59
2022-11-01T13:04:06.059Z,12.67
2022-11-01T13:06:32.587Z,12.72
2022-11-01T13:09:07.557Z,12.74
2022-11-01T13:11:46.733Z,12.75
2022-11-01T13:14:44.036Z,12.69
2022-11-01T13:17:27.204Z,12.70
2022-11-01T13:20:23.368Z,12.76
2022-11-01T13:22:56.124Z,12.84
2022-11-01T13:25:31.191Z,12.78
2022-11-01T13:28:13.929Z,12.65
2022-11-01T13:30:50.146Z,12.58
2022-11-01T13:33:43.449Z,12.52
2022-11-01T13:36:36.785Z,12.45
2022-11-01T13:39:40.970Z,12.40
2022-11-01T13:42:29.048Z,12.35
2022-11-01T13:45:07.808Z,12.32
2022-11-01T13:48:14.449Z,12.30
2022-11-01T13:51:12.964Z,12.27
2022-11-01T13:53:58.912Z,12.23
2022-11-01T13:56:37.117Z,12.22
2022-11-01T13:59:13.710Z,12.23
2022-11-01T14:01:40.790Z,12.24
2022-11-01T14:04:35.093Z,12.22
2022-11-01T14:07:10.891Z,12.21
2022-11-01T14:09:43.629Z,12.19
2022-11-01T14:12:29.275Z,12.15
2022-11-01T14:15:22.815Z,12.12
2022-11-01T14:18:07.623Z,12.06
2022-11-01T14:20:54.236Z,11.98
2022-11-01T14:23:30.105Z,11.94
2022-11-01T14:26:21.431Z,11.87
2022-11-01T14:28:50.005Z,11.85
2022-11-01T14:31:19.910Z,11.84
2022-11-01T14:33:48.434Z,11.86
2022-11-01T14:36:17.951Z,11.82
2022-11-01T14:39:22.463Z,11.81
2022-11-01T14:41:55.991Z,11.81
2022-11-01T14:44:31.300Z,11.81
2022-11-01T14:47:02.012Z,11.82
2022-11-01T14:49:40.845Z,11.82
2022-11-01T14:52:22.579Z,11.82
2022-11-01T14:55:05.850Z,11.80
2022-11-01T14:57:34.705Z,11.81
2022-11-01T15:00:20.931Z,11.82
2022-11-01T15:02:47.734Z,11.80
2022-11-01T15:05:16.804Z,11.80
2022-11-01T15:07:48.777Z,11.80
2022-11-01T15:10:15.464Z,11.82
2022-11-01T15:13:01.686Z,11.80
2022-11-01T15:15:37.494Z,11.77
2022-11-01T15:18:20.406Z,11.72
2022-11-01T15:20:50.446Z,11.66
2022-11-01T15:23:27.016Z,11.60
2022-11-01T15:25:56.461Z,11.55
2022-11-01T15:28:27.012Z,11.49
2022-11-01T15:30:56.780Z,11.45
2022-11-01T15:33:28.182Z,11.43
2022-11-01T15:35:59.314Z,11.39
2022-11-01T15:38:27.310Z,11.37
2022-11-01T15:40:54.528Z,11.37
2022-11-01T15:43:24.062Z,11.36
2022-11-01T15:45:59.411Z,11.32
2022-11-01T15:48:30.838Z,11.25
2022-11-01T15:51:01.029Z,11.22
2022-11-01T15:53:32.653Z,11.22
2022-11-01T15:56:15.233Z,11.23
2022-11-01T16:01:26.548Z,11.24
2022-11-01T16:04:04.991Z,11.22
2022-11-01T16:06:40.942Z,11.22
2022-11-01T16:09:44.529Z,11.23
2022-11-01T16:12:21.640Z,11.19
2022-11-01T16:15:18.008Z,11.20
2022-11-01T16:17:44.949Z,11.16
2022-11-01T16:21:00.541Z,11.06
2022-11-01T16:23:32.536Z,10.99
2022-11-01T16:26:04.133Z,10.94
2022-11-01T16:28:38.756Z,10.87
2022-11-01T16:31:22.824Z,10.82
2022-11-01T16:33:49.716Z,10.73
2022-11-01T16:36:19.402Z,10.66
2022-11-01T16:38:47.339Z,10.63
2022-11-01T16:41:24.320Z,10.57
2022-11-01T16:43:56.388Z,10.53
2022-11-01T16:46:24.971Z,10.46
2022-11-01T16:48:54.561Z,10.42
2022-11-01T16:51:24.962Z,10.37
2022-11-01T16:53:51.634Z,10.32
2022-11-01T16:56:36.241Z,10.27
2022-11-01T16:59:35.847Z,10.23
2022-11-01T17:02:15.318Z,10.16
2022-11-01T17:04:42.763Z,10.12
2022-11-01T17:07:12.028Z,10.07
2022-11-01T17:09:39.717Z,10.01
2022-11-01T17:12:07.724Z,9.96
2022-11-01T17:14:38.047Z,9.93
2022-11-01T17:17:10.741Z,9.92
2022-11-01T17:19:41.061Z,9.91
2022-11-01T17:22:20.788Z,9.85
2022-11-01T17:24:47.809Z,9.85
2022-11-01T17:27:15.694Z,9.87
2022-11-01T17:29:43.130Z,9.87
2022-11-01T17:32:11.408Z,9.85
2022-11-01T17:34:38.985Z,9.82
2022-11-01T17:37:06.446Z,9.82
2022-11-01T17:39:34.653Z,9.80
2022-11-01T17:42:01.288Z,9.80
2022-11-01T17:44:27.967Z,9.81
2022-11-01T17:46:54.652Z,9.84
2022-11-01T17:49:23.724Z,9.82
2022-11-01T17:51:54.776Z,9.83
2022-11-01T17:54:22.915Z,9.82
2022-11-01T17:56:51.213Z,9.79
2022-11-01T17:59:18.107Z,9.75
2022-11-01T18:01:45.160Z,9.75
2022-11-01T18:04:11.964Z,9.74
2022-11-01T18:06:40.681Z,9.75
2022-11-01T18:09:19.906Z,9.70
2022-11-01T18:11:58.751Z,9.68
2022-11-01T18:14:47.074Z,9.66
2022-11-01T18:17:41.085Z,9.65
2022-11-01T18:20:14.524Z,9.63
2022-11-01T18:22:53.106Z,9.61
2022-11-01T18:25:26.073Z,9.58
2022-11-01T18:27:55.269Z,9.52
2022-11-01T18:30:22.095Z,9.48
2022-11-01T18:32:57.876Z,9.46
2022-11-01T18:35:40.374Z,9.44
2022-11-01T18:38:07.153Z,9.41
2022-11-01T18:40:56.200Z,9.39
2022-11-01T18:43:23.634Z,9.38
2022-11-01T18:46:19.178Z,9.36
2022-11-01T18:48:37.569Z,9.30
2022-11-01T18:51:16.264Z,9.26
2022-11-01T18:53:44.455Z,9.24
2022-11-01T18:56:18.312Z,9.22
2022-11-01T18:58:45.029Z,9.16
2022-11-01T19:01:14.821Z,9.15
2022-11-01T19:03:42.282Z,9.09
2022-11-01T19:06:22.248Z,9.07
2022-11-01T19:08:56.007Z,9.03
2022-11-01T19:11:23.499Z,9.00
2022-11-01T19:13:50.752Z,8.98
2022-11-01T19:16:19.457Z,8.91
2022-11-01T19:18:48.132Z,8.88
2022-11-01T19:21:17.625Z,8.88
2022-11-01T19:23:50.065Z,8.83
2022-11-01T19:26:27.911Z,8.78
2022-11-01T19:28:58.921Z,8.74
2022-11-01T19:31:30.500Z,8.66
2022-11-01T19:34:00.098Z,8.58
2022-11-01T19:36:36.765Z,8.52
2022-11-01T19:39:14.122Z,8.45
2022-11-01T19:41:41.016Z,8.41
2022-11-01T19:44:18.410Z,8.38
2022-11-01T19:46:45.020Z,8.35
2022-11-01T19:49:25.923Z,8.34
2022-11-01T19:52:12.202Z,8.33
2022-11-01T19:54:41.604Z,8.32
2022-11-01T19:57:26.521Z,8.31
2022-11-01T19:59:58.026Z,8.30
2022-11-01T20:02:25.111Z,8.29
2022-11-01T20:04:57.569Z,8.30
2022-11-01T20:07:26.968Z,8.27
2022-11-01T20:09:58.584Z,8.22
2022-11-01T20:12:25.503Z,8.20
2022-11-01T20:14:52.184Z,8.15
2022-11-01T20:17:18.782Z,8.12
2022-11-01T20:19:45.465Z,8.13
2022-11-01T20:22:12.300Z,8.08
2022-11-01T20:24:38.927Z,8.07
2022-11-01T20:27:05.787Z,8.02
2022-11-01T20:29:32.387Z,7.98
2022-11-01T20:31:59.056Z,7.95
2022-11-01T20:34:27.239Z,7.92
2022-11-01T20:37:27.398Z,7.91
2022-11-01T20:39:40.544Z,7.86
2022-11-01T20:42:08.073Z,7.84
2022-11-01T20:44:34.724Z,7.81
2022-11-01T20:47:01.334Z,7.80
2022-11-01T20:49:28.003Z,7.76
2022-11-01T20:51:57.673Z,7.74
2022-11-01T20:54:31.265Z,7.71
2022-11-01T20:56:57.921Z,7.66
2022-11-01T20:59:24.815Z,7.65
2022-11-01T21:01:51.756Z,7.64
2022-11-01T21:04:19.412Z,7.61
2022-11-01T21:06:46.390Z,7.59
2022-11-01T21:09:37.495Z,7.55
2022-11-01T21:12:27.373Z,7.53
2022-11-01T21:14:55.009Z,7.52
2022-11-01T21:17:21.611Z,7.51
2022-11-01T21:19:57.254Z,7.52
2022-11-01T21:22:24.097Z,7.51
2022-11-01T21:24:51.466Z,7.51
2022-11-01T21:30:14.932Z,7.48
2022-11-01T21:32:45.005Z,7.46
2022-11-01T21:35:21.115Z,7.44
2022-11-01T21:37:50.758Z,7.45
2022-11-01T21:40:29.325Z,7.43
2022-11-01T21:42:57.478Z,7.43
2022-11-01T21:45:31.569Z,7.40
2022-11-01T21:48:02.687Z,7.41
2022-11-01T21:50:29.691Z,7.42
2022-11-01T21:52:56.302Z,7.40
2022-11-01T21:55:22.911Z,7.40
2022-11-01T21:57:49.573Z,7.40
2022-11-01T22:00:16.556Z,7.37
2022-11-01T22:02:43.304Z,7.35
2022-11-01T22:05:10.609Z,7.35
2022-11-01T22:07:37.202Z,7.39
2022-11-01T22:10:04.312Z,7.41
2022-11-01T22:12:30.917Z,7.40
2022-11-01T22:14:57.515Z,7.37
2022-11-01T22:17:24.197Z,7.35
2022-11-01T22:19:50.797Z,7.34
2022-11-01T22:22:17.450Z,7.34
2022-11-01T22:24:44.739Z,7.35
2022-11-01T22:27:11.353Z,7.34
2022-11-01T22:29:37.935Z,7.34
2022-11-01T22:32:04.709Z,7.33
2022-11-01T22:34:31.366Z,7.32
2022-11-01T22:36:58.165Z,7.31
2022-11-01T22:39:26.883Z,7.30
2022-11-01T22:41:54.556Z,7.27
2022-11-01T22:44:30.857Z,7.28
2022-11-01T22:47:01.065Z,7.26
2022-11-01T22:49:33.851Z,7.23
2022-11-01T22:52:05.289Z,7.23
2022-11-01T22:54:47.724Z,7.19
2022-11-01T22:57:14.202Z,7.19
2022-11-01T23:00:22.808Z,7.18
2022-11-01T23:02:49.615Z,7.16
2022-11-01T23:05:26.144Z,7.16
2022-11-01T23:07:55.663Z,7.17
2022-11-01T23:10:27.284Z,7.17
2022-11-01T23:13:45.275Z,7.16
2022-11-01T23:16:24.668Z,7.16
2022-11-01T23:18:53.400Z,7.16
2022-11-01T23:21:21.626Z,7.14
2022-11-01T23:23:48.949Z,7.14
2022-11-01T23:26:17.704Z,7.13
2022-11-01T23:28:52.978Z,7.12
2022-11-01T23:31:20.835Z,7.13
2022-11-01T23:33:49.035Z,7.13
2022-11-01T23:36:30.497Z,7.14
2022-11-01T23:39:03.222Z,7.14
2022-11-01T23:41:53.684Z,7.13
2022-11-01T23:44:29.122Z,7.14
2022-11-01T23:47:19.787Z,7.15
2022-11-01T23:49:49.509Z,7.14
2022-11-01T23:52:31.015Z,7.13
2022-11-01T23:54:57.934Z,7.11
2022-11-01T23:57:24.712Z,7.11
2022-11-01T23:59:52.113Z,7.09
